Terminal Aerodrome Forecast
Issued by NWS Wilmington, OH

Current Version | Previous Version | Text Only | Print | Product List | Glossary Off
Versions: 1 2 3 4 5 6 7 8 9 10 11 12 13 14 15 16 17 18

000
FTUS41 KILN 160500
TAFCMH
TAF
KCMH 160534Z 1606/1706 35006KT P6SM OVC025
     FM160800 36004KT P6SM OVC012
     FM161700 01005KT P6SM BKN025
     FM161900 36004KT P6SM SCT035
     FM170000 VRB02KT P6SM SKC=

USA.gov is the U.S. government's official web portal to all federal, state and local government web resources and services.